sensor_id;sensor_type;location;lat;lon;timestamp;temperature;humidity
21801;DHT22;11062;51.164;16.924;2023-02-01T00:02:23;17.60;47.90
21801;DHT22;11062;51.164;16.924;2023-02-01T00:04:51;17.10;47.90
21801;DHT22;11062;51.164;16.924;2023-02-01T00:07:20;17.70;47.00
21801;DHT22;11062;51.164;16.924;2023-02-01T00:09:46;18.70;46.40
21801;DHT22;11062;51.164;16.924;2023-02-01T00:12:12;19.20;45.30
21801;DHT22;11062;51.164;16.924;2023-02-01T00:14:38;18.90;44.80
21801;DHT22;11062;51.164;16.924;2023-02-01T00:17:05;19.10;45.00
21801;DHT22;11062;51.164;16.924;2023-02-01T00:19:32;18.90;44.80
21801;DHT22;11062;51.164;16.924;2023-02-01T00:22:01;19.10;45.10
21801;DHT22;11062;51.164;16.924;2023-02-01T00:24:27;19.40;44.40
21801;DHT22;11062;51.164;16.924;2023-02-01T00:26:53;19.90;44.00
21801;DHT22;11062;51.164;16.924;2023-02-01T00:29:20;20.00;44.00
21801;DHT22;11062;51.164;16.924;2023-02-01T00:31:46;20.40;43.30
21801;DHT22;11062;51.164;16.924;2023-02-01T00:42:25;20.40;43.50
21801;DHT22;11062;51.164;16.924;2023-02-01T00:44:52;20.20;43.50
21801;DHT22;11062;51.164;16.924;2023-02-01T00:47:23;20.60;43.70
21801;DHT22;11062;51.164;16.924;2023-02-01T00:49:52;20.70;42.70
21801;DHT22;11062;51.164;16.924;2023-02-01T00:52:18;21.40;42.60
21801;DHT22;11062;51.164;16.924;2023-02-01T00:54:43;21.80;41.70
21801;DHT22;11062;51.164;16.924;2023-02-01T00:57:09;21.60;41.30
21801;DHT22;11062;51.164;16.924;2023-02-01T00:59:35;21.50;41.50
21801;DHT22;11062;51.164;16.924;2023-02-01T01:02:01;21.40;41.60
21801;DHT22;11062;51.164;16.924;2023-02-01T01:04:27;21.90;41.70
21801;DHT22;11062;51.164;16.924;2023-02-01T01:06:52;21.80;41.10
21801;DHT22;11062;51.164;16.924;2023-02-01T01:09:18;21.40;40.90
21801;DHT22;11062;51.164;16.924;2023-02-01T01:11:44;21.40;41.40
21801;DHT22;11062;51.164;16.924;2023-02-01T01:14:11;20.60;42.30
21801;DHT22;11062;51.164;16.924;2023-02-01T01:16:37;19.70;43.60
21801;DHT22;11062;51.164;16.924;2023-02-01T01:19:03;19.70;44.30
21801;DHT22;11062;51.164;16.924;2023-02-01T01:21:29;18.90;45.20
21801;DHT22;11062;51.164;16.924;2023-02-01T01:23:55;18.80;45.30
21801;DHT22;11062;51.164;16.924;2023-02-01T01:26:24;18.60;46.20
21801;DHT22;11062;51.164;16.924;2023-02-01T01:28:51;17.20;46.10
21801;DHT22;11062;51.164;16.924;2023-02-01T01:31:20;18.00;47.40
21801;DHT22;11062;51.164;16.924;2023-02-01T01:33:54;17.40;46.30
21801;DHT22;11062;51.164;16.924;2023-02-01T01:36:21;16.80;46.50
21801;DHT22;11062;51.164;16.924;2023-02-01T01:38:50;16.60;47.90
21801;DHT22;11062;51.164;16.924;2023-02-01T01:41:22;17.60;48.30
21801;DHT22;11062;51.164;16.924;2023-02-01T01:43:54;17.90;47.70
21801;DHT22;11062;51.164;16.924;2023-02-01T01:46:30;18.20;47.00
21801;DHT22;11062;51.164;16.924;2023-02-01T01:49:11;19.20;46.30
21801;DHT22;11062;51.164;16.924;2023-02-01T01:51:55;19.40;45.10
21801;DHT22;11062;51.164;16.924;2023-02-01T01:56:55;20.60;44.00
21801;DHT22;11062;51.164;16.924;2023-02-01T01:59:24;21.00;43.20
21801;DHT22;11062;51.164;16.924;2023-02-01T02:01:50;21.50;42.30
21801;DHT22;11062;51.164;16.924;2023-02-01T02:04:17;22.20;41.80
21801;DHT22;11062;51.164;16.924;2023-02-01T02:07:01;22.70;40.60
21801;DHT22;11062;51.164;16.924;2023-02-01T02:09:28;22.90;40.30
21801;DHT22;11062;51.164;16.924;2023-02-01T02:11:54;23.00;39.90
21801;DHT22;11062;51.164;16.924;2023-02-01T02:14:21;23.20;39.90
21801;DHT22;11062;51.164;16.924;2023-02-01T02:23:09;23.00;39.50
21801;DHT22;11062;51.164;16.924;2023-02-01T02:25:55;22.70;39.60
21801;DHT22;11062;51.164;16.924;2023-02-01T02:34:41;23.00;39.00
21801;DHT22;11062;51.164;16.924;2023-02-01T02:37:36;23.10;39.40
21801;DHT22;11062;51.164;16.924;2023-02-01T02:40:18;23.00;39.40
21801;DHT22;11062;51.164;16.924;2023-02-01T02:46:28;23.40;38.90
21801;DHT22;11062;51.164;16.924;2023-02-01T02:49:47;23.00;38.40
21801;DHT22;11062;51.164;16.924;2023-02-01T02:52:38;23.40;38.60
21801;DHT22;11062;51.164;16.924;2023-02-01T02:55:28;23.30;38.20
21801;DHT22;11062;51.164;16.924;2023-02-01T02:57:56;23.40;38.30
21801;DHT22;11062;51.164;16.924;2023-02-01T03:00:42;23.20;38.00
21801;DHT22;11062;51.164;16.924;2023-02-01T03:03:28;23.30;38.30
21801;DHT22;11062;51.164;16.924;2023-02-01T03:06:15;23.30;38.10
21801;DHT22;11062;51.164;16.924;2023-02-01T03:08:45;23.40;37.60
21801;DHT22;11062;51.164;16.924;2023-02-01T03:11:16;23.40;37.50
21801;DHT22;11062;51.164;16.924;2023-02-01T03:13:57;23.90;37.30
21801;DHT22;11062;51.164;16.924;2023-02-01T03:16:50;23.70;36.80
21801;DHT22;11062;51.164;16.924;2023-02-01T03:19:29;23.70;36.50
21801;DHT22;11062;51.164;16.924;2023-02-01T03:22:10;24.10;36.60
21801;DHT22;11062;51.164;16.924;2023-02-01T03:24:43;24.00;36.20
21801;DHT22;11062;51.164;16.924;2023-02-01T03:27:34;24.10;36.30
21801;DHT22;11062;51.164;16.924;2023-02-01T03:30:19;23.90;36.40
21801;DHT22;11062;51.164;16.924;2023-02-01T03:32:50;24.00;36.40
21801;DHT22;11062;51.164;16.924;2023-02-01T03:39:03;24.30;36.20
21801;DHT22;11062;51.164;16.924;2023-02-01T03:44:11;24.00;36.40
21801;DHT22;11062;51.164;16.924;2023-02-01T03:47:03;24.00;36.10
21801;DHT22;11062;51.164;16.924;2023-02-01T03:49:38;24.00;36.20
21801;DHT22;11062;51.164;16.924;2023-02-01T03:52:09;24.40;36.60
21801;DHT22;11062;51.164;16.924;2023-02-01T03:54:36;23.90;36.10
21801;DHT22;11062;51.164;16.924;2023-02-01T03:57:08;23.90;36.40
21801;DHT22;11062;51.164;16.924;2023-02-01T03:59:40;23.90;36.50
21801;DHT22;11062;51.164;16.924;2023-02-01T04:02:11;23.80;36.20
21801;DHT22;11062;51.164;16.924;2023-02-01T04:04:37;23.90;36.00
21801;DHT22;11062;51.164;16.924;2023-02-01T04:11:09;23.50;36.20
21801;DHT22;11062;51.164;16.924;2023-02-01T04:14:21;22.90;36.60
21801;DHT22;11062;51.164;16.924;2023-02-01T04:16:54;23.70;36.80
21801;DHT22;11062;51.164;16.924;2023-02-01T04:19:20;23.60;36.20
21801;DHT22;11062;51.164;16.924;2023-02-01T04:21:47;23.50;36.30
21801;DHT22;11062;51.164;16.924;2023-02-01T04:24:13;23.20;36.30
21801;DHT22;11062;51.164;16.924;2023-02-01T04:26:39;23.00;36.50
21801;DHT22;11062;51.164;16.924;2023-02-01T04:29:05;23.00;37.40
21801;DHT22;11062;51.164;16.924;2023-02-01T04:31:31;23.30;36.80
21801;DHT22;11062;51.164;16.924;2023-02-01T04:33:56;23.30;36.20
21801;DHT22;11062;51.164;16.924;2023-02-01T04:36:23;23.40;36.30
21801;DHT22;11062;51.164;16.924;2023-02-01T04:38:50;23.20;36.60
21801;DHT22;11062;51.164;16.924;2023-02-01T04:41:16;23.20;36.50
21801;DHT22;11062;51.164;16.924;2023-02-01T04:43:46;22.90;37.00
21801;DHT22;11062;51.164;16.924;2023-02-01T04:46:12;22.60;36.90
21801;DHT22;11062;51.164;16.924;2023-02-01T04:48:38;23.10;37.10
21801;DHT22;11062;51.164;16.924;2023-02-01T04:51:04;23.40;36.70
21801;DHT22;11062;51.164;16.924;2023-02-01T04:53:30;23.50;36.20
21801;DHT22;11062;51.164;16.924;2023-02-01T04:55:56;23.40;36.20
21801;DHT22;11062;51.164;16.924;2023-02-01T04:58:22;23.90;36.10
21801;DHT22;11062;51.164;16.924;2023-02-01T05:00:48;23.70;35.70
21801;DHT22;11062;51.164;16.924;2023-02-01T05:03:15;23.80;35.90
21801;DHT22;11062;51.164;16.924;2023-02-01T05:05:40;23.50;35.40
21801;DHT22;11062;51.164;16.924;2023-02-01T05:08:06;23.60;35.80
21801;DHT22;11062;51.164;16.924;2023-02-01T05:10:34;23.60;35.70
21801;DHT22;11062;51.164;16.924;2023-02-01T05:13:00;23.50;36.10
21801;DHT22;11062;51.164;16.924;2023-02-01T05:15:45;23.90;35.90
21801;DHT22;11062;51.164;16.924;2023-02-01T05:18:12;23.40;35.70
21801;DHT22;11062;51.164;16.924;2023-02-01T05:20:38;23.70;36.10
21801;DHT22;11062;51.164;16.924;2023-02-01T05:23:04;23.30;35.50
21801;DHT22;11062;51.164;16.924;2023-02-01T05:25:29;22.80;35.90
21801;DHT22;11062;51.164;16.924;2023-02-01T05:27:55;22.70;36.60
21801;DHT22;11062;51.164;16.924;2023-02-01T05:30:21;23.00;36.20
21801;DHT22;11062;51.164;16.924;2023-02-01T05:32:51;23.20;36.00
21801;DHT22;11062;51.164;16.924;2023-02-01T05:35:17;23.00;36.00
21801;DHT22;11062;51.164;16.924;2023-02-01T05:37:43;23.10;36.30
21801;DHT22;11062;51.164;16.924;2023-02-01T05:40:10;23.00;36.10
21801;DHT22;11062;51.164;16.924;2023-02-01T05:42:36;22.90;35.90
21801;DHT22;11062;51.164;16.924;2023-02-01T05:45:02;22.80;36.40
21801;DHT22;11062;51.164;16.924;2023-02-01T05:47:30;23.10;36.50
21801;DHT22;11062;51.164;16.924;2023-02-01T05:49:56;22.90;36.10
21801;DHT22;11062;51.164;16.924;2023-02-01T05:52:22;23.00;35.90
21801;DHT22;11062;51.164;16.924;2023-02-01T05:54:48;23.20;36.10
21801;DHT22;11062;51.164;16.924;2023-02-01T05:57:14;23.00;36.10
21801;DHT22;11062;51.164;16.924;2023-02-01T05:59:40;23.50;36.00
21801;DHT22;11062;51.164;16.924;2023-02-01T06:02:11;23.90;35.40
21801;DHT22;11062;51.164;16.924;2023-02-01T06:04:37;24.00;35.10
21801;DHT22;11062;51.164;16.924;2023-02-01T06:07:03;24.20;34.70
21801;DHT22;11062;51.164;16.924;2023-02-01T06:14:22;23.70;35.10
21801;DHT22;11062;51.164;16.924;2023-02-01T06:19:14;22.40;35.80
21801;DHT22;11062;51.164;16.924;2023-02-01T06:21:40;21.80;38.00
21801;DHT22;11062;51.164;16.924;2023-02-01T06:24:06;21.20;39.40
21801;DHT22;11062;51.164;16.924;2023-02-01T06:26:32;20.90;39.60
21801;DHT22;11062;51.164;16.924;2023-02-01T06:28:58;20.70;40.10
21801;DHT22;11062;51.164;16.924;2023-02-01T06:31:24;20.10;40.40
21801;DHT22;11062;51.164;16.924;2023-02-01T06:33:51;19.90;40.80
21801;DHT22;11062;51.164;16.924;2023-02-01T06:36:17;19.80;41.10
21801;DHT22;11062;51.164;16.924;2023-02-01T06:38:44;19.80;41.60
21801;DHT22;11062;51.164;16.924;2023-02-01T06:41:10;19.80;41.60
21801;DHT22;11062;51.164;16.924;2023-02-01T06:43:36;19.80;41.50
21801;DHT22;11062;51.164;16.924;2023-02-01T06:46:05;19.80;41.50
21801;DHT22;11062;51.164;16.924;2023-02-01T06:48:32;19.80;41.50
21801;DHT22;11062;51.164;16.924;2023-02-01T06:50:58;20.20;41.80
21801;DHT22;11062;51.164;16.924;2023-02-01T06:53:24;20.50;41.10
21801;DHT22;11062;51.164;16.924;2023-02-01T06:55:58;20.30;43.30
21801;DHT22;11062;51.164;16.924;2023-02-01T06:58:27;20.60;41.00
21801;DHT22;11062;51.164;16.924;2023-02-01T07:00:53;21.00;41.50
21801;DHT22;11062;51.164;16.924;2023-02-01T07:03:19;20.40;41.50
21801;DHT22;11062;51.164;16.924;2023-02-01T07:05:45;20.70;44.40
21801;DHT22;11062;51.164;16.924;2023-02-01T07:08:11;20.50;41.80
21801;DHT22;11062;51.164;16.924;2023-02-01T07:10:37;20.60;39.60
21801;DHT22;11062;51.164;16.924;2023-02-01T07:13:03;20.70;42.00
21801;DHT22;11062;51.164;16.924;2023-02-01T07:17:55;20.50;39.80
21801;DHT22;11062;51.164;16.924;2023-02-01T07:20:21;20.20;39.70
21801;DHT22;11062;51.164;16.924;2023-02-01T07:22:47;20.50;42.70
21801;DHT22;11062;51.164;16.924;2023-02-01T07:25:13;20.30;43.70
21801;DHT22;11062;51.164;16.924;2023-02-01T07:27:39;21.10;43.70
21801;DHT22;11062;51.164;16.924;2023-02-01T07:30:06;21.40;42.80
21801;DHT22;11062;51.164;16.924;2023-02-01T07:32:32;21.50;40.50
21801;DHT22;11062;51.164;16.924;2023-02-01T07:34:58;21.50;41.90
21801;DHT22;11062;51.164;16.924;2023-02-01T07:37:24;21.70;41.00
21801;DHT22;11062;51.164;16.924;2023-02-01T07:39:54;21.80;40.60
21801;DHT22;11062;51.164;16.924;2023-02-01T07:42:20;21.50;39.80
21801;DHT22;11062;51.164;16.924;2023-02-01T07:44:46;21.20;41.60
21801;DHT22;11062;51.164;16.924;2023-02-01T07:49:38;21.20;39.10
21801;DHT22;11062;51.164;16.924;2023-02-01T07:52:04;21.00;42.10
21801;DHT22;11062;51.164;16.924;2023-02-01T07:54:30;21.00;41.20
21801;DHT22;11062;51.164;16.924;2023-02-01T07:56:56;21.80;42.20
21801;DHT22;11062;51.164;16.924;2023-02-01T07:59:22;21.10;41.60
21801;DHT22;11062;51.164;16.924;2023-02-01T08:01:47;21.50;41.40
21801;DHT22;11062;51.164;16.924;2023-02-01T08:04:13;20.90;42.00
21801;DHT22;11062;51.164;16.924;2023-02-01T08:06:40;20.60;42.80
21801;DHT22;11062;51.164;16.924;2023-02-01T08:09:07;21.00;41.90
21801;DHT22;11062;51.164;16.924;2023-02-01T08:11:37;21.10;41.20
21801;DHT22;11062;51.164;16.924;2023-02-01T08:14:04;19.50;42.10
21801;DHT22;11062;51.164;16.924;2023-02-01T08:16:30;21.80;41.10
21801;DHT22;11062;51.164;16.924;2023-02-01T08:18:56;21.50;42.30
21801;DHT22;11062;51.164;16.924;2023-02-01T08:21:25;20.40;41.20
21801;DHT22;11062;51.164;16.924;2023-02-01T08:23:51;21.00;41.10
21801;DHT22;11062;51.164;16.924;2023-02-01T08:26:20;21.00;41.50
21801;DHT22;11062;51.164;16.924;2023-02-01T08:28:50;18.70;40.90
21801;DHT22;11062;51.164;16.924;2023-02-01T08:31:18;20.70;41.30
21801;DHT22;11062;51.164;16.924;2023-02-01T08:33:53;20.80;41.50
21801;DHT22;11062;51.164;16.924;2023-02-01T08:36:19;21.00;41.40
21801;DHT22;11062;51.164;16.924;2023-02-01T08:38:46;21.20;41.90
21801;DHT22;11062;51.164;16.924;2023-02-01T08:41:16;21.10;42.60
21801;DHT22;11062;51.164;16.924;2023-02-01T08:43:43;21.20;41.40
21801;DHT22;11062;51.164;16.924;2023-02-01T08:46:09;21.00;42.30
21801;DHT22;11062;51.164;16.924;2023-02-01T08:48:36;21.10;42.40
21801;DHT22;11062;51.164;16.924;2023-02-01T08:51:06;20.60;42.90
21801;DHT22;11062;51.164;16.924;2023-02-01T08:53:32;20.80;43.20
21801;DHT22;11062;51.164;16.924;2023-02-01T08:56:01;18.90;44.00
21801;DHT22;11062;51.164;16.924;2023-02-01T08:58:27;20.40;44.10
21801;DHT22;11062;51.164;16.924;2023-02-01T09:00:54;21.10;46.90
21801;DHT22;11062;51.164;16.924;2023-02-01T09:03:19;21.10;47.00
21801;DHT22;11062;51.164;16.924;2023-02-01T09:05:45;20.00;45.40
21801;DHT22;11062;51.164;16.924;2023-02-01T09:08:11;20.50;49.00
21801;DHT22;11062;51.164;16.924;2023-02-01T09:10:41;19.60;45.50
21801;DHT22;11062;51.164;16.924;2023-02-01T09:13:07;20.40;45.30
21801;DHT22;11062;51.164;16.924;2023-02-01T09:15:33;19.80;45.20
21801;DHT22;11062;51.164;16.924;2023-02-01T09:17:59;19.90;45.50
21801;DHT22;11062;51.164;16.924;2023-02-01T09:20:26;20.70;46.20
21801;DHT22;11062;51.164;16.924;2023-02-01T09:22:52;20.50;46.50
21801;DHT22;11062;51.164;16.924;2023-02-01T09:25:18;20.60;45.60
21801;DHT22;11062;51.164;16.924;2023-02-01T09:27:44;20.70;46.60
21801;DHT22;11062;51.164;16.924;2023-02-01T09:30:11;20.50;44.50
21801;DHT22;11062;51.164;16.924;2023-02-01T09:32:37;20.30;44.10
21801;DHT22;11062;51.164;16.924;2023-02-01T09:35:03;20.80;45.80
21801;DHT22;11062;51.164;16.924;2023-02-01T09:37:28;20.50;45.90
21801;DHT22;11062;51.164;16.924;2023-02-01T09:39:55;20.70;45.80
21801;DHT22;11062;51.164;16.924;2023-02-01T09:47:47;22.30;43.70
21801;DHT22;11062;51.164;16.924;2023-02-01T09:50:21;20.30;44.30
21801;DHT22;11062;51.164;16.924;2023-02-01T09:53:04;20.30;44.40
21801;DHT22;11062;51.164;16.924;2023-02-01T09:55:38;20.60;43.70
21801;DHT22;11062;51.164;16.924;2023-02-01T10:00:53;21.30;45.60
21801;DHT22;11062;51.164;16.924;2023-02-01T10:03:19;21.40;43.30
21801;DHT22;11062;51.164;16.924;2023-02-01T10:11:38;20.70;42.40
21801;DHT22;11062;51.164;16.924;2023-02-01T10:25:29;20.30;43.70
21801;DHT22;11062;51.164;16.924;2023-02-01T10:27:56;20.60;43.70
21801;DHT22;11062;51.164;16.924;2023-02-01T10:30:35;20.40;43.80
21801;DHT22;11062;51.164;16.924;2023-02-01T10:35:46;20.80;43.60
21801;DHT22;11062;51.164;16.924;2023-02-01T10:38:27;20.50;42.70
21801;DHT22;11062;51.164;16.924;2023-02-01T10:41:12;20.60;43.40
21801;DHT22;11062;51.164;16.924;2023-02-01T10:43:39;20.60;42.80
21801;DHT22;11062;51.164;16.924;2023-02-01T10:46:07;20.20;43.60
21801;DHT22;11062;51.164;16.924;2023-02-01T10:48:33;20.20;44.40
21801;DHT22;11062;51.164;16.924;2023-02-01T10:51:22;20.30;45.20
21801;DHT22;11062;51.164;16.924;2023-02-01T10:53:50;19.70;44.50
21801;DHT22;11062;51.164;16.924;2023-02-01T10:56:24;19.70;44.50
21801;DHT22;11062;51.164;16.924;2023-02-01T10:58:51;21.50;46.60
21801;DHT22;11062;51.164;16.924;2023-02-01T11:01:22;19.90;45.50
21801;DHT22;11062;51.164;16.924;2023-02-01T11:03:54;20.00;45.50
21801;DHT22;11062;51.164;16.924;2023-02-01T11:06:30;20.20;44.80
21801;DHT22;11062;51.164;16.924;2023-02-01T11:09:19;20.30;44.80
21801;DHT22;11062;51.164;16.924;2023-02-01T11:14:18;21.00;46.20
21801;DHT22;11062;51.164;16.924;2023-02-01T11:16:50;21.30;43.40
21801;DHT22;11062;51.164;16.924;2023-02-01T11:19:17;20.70;44.20
21801;DHT22;11062;51.164;16.924;2023-02-01T11:21:44;20.20;45.60
21801;DHT22;11062;51.164;16.924;2023-02-01T11:24:35;19.90;46.70
21801;DHT22;11062;51.164;16.924;2023-02-01T11:27:12;19.80;46.00
21801;DHT22;11062;51.164;16.924;2023-02-01T11:29:42;20.30;46.60
21801;DHT22;11062;51.164;16.924;2023-02-01T11:32:10;18.20;44.40
21801;DHT22;11062;51.164;16.924;2023-02-01T11:34:45;20.60;44.80
21801;DHT22;11062;51.164;16.924;2023-02-01T11:37:25;20.50;44.90
21801;DHT22;11062;51.164;16.924;2023-02-01T11:39:57;19.70;46.50
21801;DHT22;11062;51.164;16.924;2023-02-01T11:42:24;19.70;46.00
21801;DHT22;11062;51.164;16.924;2023-02-01T11:44:50;19.50;46.20
21801;DHT22;11062;51.164;16.924;2023-02-01T11:47:24;19.70;47.10
21801;DHT22;11062;51.164;16.924;2023-02-01T11:49:52;19.50;46.80
21801;DHT22;11062;51.164;16.924;2023-02-01T11:52:43;19.60;46.70
21801;DHT22;11062;51.164;16.924;2023-02-01T12:06:39;20.60;45.60
21801;DHT22;11062;51.164;16.924;2023-02-01T12:14:27;20.00;46.40
21801;DHT22;11062;51.164;16.924;2023-02-01T12:22:40;19.40;46.90
21801;DHT22;11062;51.164;16.924;2023-02-01T12:25:24;19.20;46.80
21801;DHT22;11062;51.164;16.924;2023-02-01T12:27:59;19.40;46.90
21801;DHT22;11062;51.164;16.924;2023-02-01T12:39:38;20.10;46.50
21801;DHT22;11062;51.164;16.924;2023-02-01T12:42:24;19.80;46.20
21801;DHT22;11062;51.164;16.924;2023-02-01T12:45:14;19.90;46.40
21801;DHT22;11062;51.164;16.924;2023-02-01T12:48:13;19.80;46.80
21801;DHT22;11062;51.164;16.924;2023-02-01T12:51:14;19.40;47.30
21801;DHT22;11062;51.164;16.924;2023-02-01T12:53:48;19.40;47.20
21801;DHT22;11062;51.164;16.924;2023-02-01T12:56:24;19.80;46.90
21801;DHT22;11062;51.164;16.924;2023-02-01T12:58:53;19.70;46.80
21801;DHT22;11062;51.164;16.924;2023-02-01T13:01:26;19.50;47.30
21801;DHT22;11062;51.164;16.924;2023-02-01T13:04:05;21.80;49.40
21801;DHT22;11062;51.164;16.924;2023-02-01T13:09:51;19.30;47.00
21801;DHT22;11062;51.164;16.924;2023-02-01T13:12:25;19.40;47.70
21801;DHT22;11062;51.164;16.924;2023-02-01T13:15:10;19.40;48.50
21801;DHT22;11062;51.164;16.924;2023-02-01T13:17:40;19.20;48.00
21801;DHT22;11062;51.164;16.924;2023-02-01T13:22:54;19.50;47.50
21801;DHT22;11062;51.164;16.924;2023-02-01T13:25:37;19.70;47.70
21801;DHT22;11062;51.164;16.924;2023-02-01T13:28:16;19.20;47.50
21801;DHT22;11062;51.164;16.924;2023-02-01T13:30:48;19.10;47.40
21801;DHT22;11062;51.164;16.924;2023-02-01T13:33:23;19.20;48.30
21801;DHT22;11062;51.164;16.924;2023-02-01T13:35:59;19.10;48.30
21801;DHT22;11062;51.164;16.924;2023-02-01T13:41:55;20.30;46.70
21801;DHT22;11062;51.164;16.924;2023-02-01T13:47:02;20.60;45.80
21801;DHT22;11062;51.164;16.924;2023-02-01T13:49:38;20.80;45.80
21801;DHT22;11062;51.164;16.924;2023-02-01T13:52:17;20.70;46.20
21801;DHT22;11062;51.164;16.924;2023-02-01T13:54:47;20.40;45.90
21801;DHT22;11062;51.164;16.924;2023-02-01T14:00:28;20.80;45.80
21801;DHT22;11062;51.164;16.924;2023-02-01T14:08:11;22.90;46.70
21801;DHT22;11062;51.164;16.924;2023-02-01T14:11:01;21.10;45.80
21801;DHT22;11062;51.164;16.924;2023-02-01T14:13:39;20.20;44.20
21801;DHT22;11062;51.164;16.924;2023-02-01T14:21:47;20.70;46.10
21801;DHT22;11062;51.164;16.924;2023-02-01T14:24:31;20.60;45.70
21801;DHT22;11062;51.164;16.924;2023-02-01T14:30:06;19.00;45.70
21801;DHT22;11062;51.164;16.924;2023-02-01T14:32:40;20.40;47.20
21801;DHT22;11062;51.164;16.924;2023-02-01T14:37:44;20.80;46.60
21801;DHT22;11062;51.164;16.924;2023-02-01T14:40:29;20.60;45.50
21801;DHT22;11062;51.164;16.924;2023-02-01T14:42:55;20.90;45.70
21801;DHT22;11062;51.164;16.924;2023-02-01T14:50:41;21.00;45.30
21801;DHT22;11062;51.164;16.924;2023-02-01T15:01:27;20.60;44.30
21801;DHT22;11062;51.164;16.924;2023-02-01T15:06:49;21.30;44.00
21801;DHT22;11062;51.164;16.924;2023-02-01T15:09:28;21.60;43.50
21801;DHT22;11062;51.164;16.924;2023-02-01T15:14:33;21.80;42.50
21801;DHT22;11062;51.164;16.924;2023-02-01T15:17:23;21.70;42.60
21801;DHT22;11062;51.164;16.924;2023-02-01T15:22:30;21.30;43.00
21801;DHT22;11062;51.164;16.924;2023-02-01T15:25:02;21.20;42.60
21801;DHT22;11062;51.164;16.924;2023-02-01T15:27:34;21.20;43.10
21801;DHT22;11062;51.164;16.924;2023-02-01T15:30:55;21.00;43.10
21801;DHT22;11062;51.164;16.924;2023-02-01T15:33:28;21.00;43.30
21801;DHT22;11062;51.164;16.924;2023-02-01T15:36:06;21.10;43.10
21801;DHT22;11062;51.164;16.924;2023-02-01T15:38:38;21.70;43.70
21801;DHT22;11062;51.164;16.924;2023-02-01T15:41:34;21.90;42.90
21801;DHT22;11062;51.164;16.924;2023-02-01T15:46:36;22.10;42.90
21801;DHT22;11062;51.164;16.924;2023-02-01T15:49:05;22.20;41.20
21801;DHT22;11062;51.164;16.924;2023-02-01T15:51:44;22.00;41.40
21801;DHT22;11062;51.164;16.924;2023-02-01T15:54:36;21.90;41.80
21801;DHT22;11062;51.164;16.924;2023-02-01T15:57:07;22.30;40.90
21801;DHT22;11062;51.164;16.924;2023-02-01T15:59:52;22.20;41.10
21801;DHT22;11062;51.164;16.924;2023-02-01T16:02:53;22.40;41.00
21801;DHT22;11062;51.164;16.924;2023-02-01T16:05:40;22.20;40.90
21801;DHT22;11062;51.164;16.924;2023-02-01T16:08:15;22.60;40.90
21801;DHT22;11062;51.164;16.924;2023-02-01T16:10:46;22.20;40.50
21801;DHT22;11062;51.164;16.924;2023-02-01T16:13:13;21.60;41.20
21801;DHT22;11062;51.164;16.924;2023-02-01T16:15:40;21.60;42.10
21801;DHT22;11062;51.164;16.924;2023-02-01T16:18:06;21.80;42.40
21801;DHT22;11062;51.164;16.924;2023-02-01T16:20:38;22.00;41.80
21801;DHT22;11062;51.164;16.924;2023-02-01T16:23:05;21.90;41.30
21801;DHT22;11062;51.164;16.924;2023-02-01T16:25:31;22.40;41.50
21801;DHT22;11062;51.164;16.924;2023-02-01T16:27:57;22.70;40.70
21801;DHT22;11062;51.164;16.924;2023-02-01T16:30:23;22.50;42.20
21801;DHT22;11062;51.164;16.924;2023-02-01T16:32:54;22.60;40.90
21801;DHT22;11062;51.164;16.924;2023-02-01T16:35:50;22.40;40.90
21801;DHT22;11062;51.164;16.924;2023-02-01T16:38:18;20.70;40.70
21801;DHT22;11062;51.164;16.924;2023-02-01T16:40:47;21.90;41.20
21801;DHT22;11062;51.164;16.924;2023-02-01T16:43:14;22.30;41.90
21801;DHT22;11062;51.164;16.924;2023-02-01T16:45:41;22.00;40.90
21801;DHT22;11062;51.164;16.924;2023-02-01T16:51:31;22.80;40.70
21801;DHT22;11062;51.164;16.924;2023-02-01T16:53:59;22.60;40.20
21801;DHT22;11062;51.164;16.924;2023-02-01T16:56:30;22.70;40.50
21801;DHT22;11062;51.164;16.924;2023-02-01T16:58:56;22.60;40.60
21801;DHT22;11062;51.164;16.924;2023-02-01T17:01:23;22.50;40.70
21801;DHT22;11062;51.164;16.924;2023-02-01T17:03:49;22.60;40.90
21801;DHT22;11062;51.164;16.924;2023-02-01T17:06:18;22.70;40.90
21801;DHT22;11062;51.164;16.924;2023-02-01T17:08:47;22.70;40.50
21801;DHT22;11062;51.164;16.924;2023-02-01T17:11:15;22.80;40.40
21801;DHT22;11062;51.164;16.924;2023-02-01T17:13:41;22.50;41.00
21801;DHT22;11062;51.164;16.924;2023-02-01T17:18:43;22.60;40.60
21801;DHT22;11062;51.164;16.924;2023-02-01T17:21:09;22.80;40.80
21801;DHT22;11062;51.164;16.924;2023-02-01T17:23:35;22.80;40.30
21801;DHT22;11062;51.164;16.924;2023-02-01T17:26:01;22.90;40.20
21801;DHT22;11062;51.164;16.924;2023-02-01T17:28:28;23.10;39.80
21801;DHT22;11062;51.164;16.924;2023-02-01T17:30:54;23.20;39.60
21801;DHT22;11062;51.164;16.924;2023-02-01T17:33:24;23.50;39.50
21801;DHT22;11062;51.164;16.924;2023-02-01T17:35:58;23.80;38.50
21801;DHT22;11062;51.164;16.924;2023-02-01T17:38:24;23.60;38.60
21801;DHT22;11062;51.164;16.924;2023-02-01T17:40:50;24.00;38.40
21801;DHT22;11062;51.164;16.924;2023-02-01T17:43:20;23.90;38.60
21801;DHT22;11062;51.164;16.924;2023-02-01T17:45:55;24.00;38.40
21801;DHT22;11062;51.164;16.924;2023-02-01T17:48:23;24.00;38.30
21801;DHT22;11062;51.164;16.924;2023-02-01T17:50:50;24.00;38.30
21801;DHT22;11062;51.164;16.924;2023-02-01T17:53:26;24.10;38.60
21801;DHT22;11062;51.164;16.924;2023-02-01T17:55:53;23.70;38.00
21801;DHT22;11062;51.164;16.924;2023-02-01T17:58:19;23.70;38.30
21801;DHT22;11062;51.164;16.924;2023-02-01T18:00:47;23.60;38.30
21801;DHT22;11062;51.164;16.924;2023-02-01T18:03:25;23.00;38.70
21801;DHT22;11062;51.164;16.924;2023-02-01T18:05:54;22.70;39.00
21801;DHT22;11062;51.164;16.924;2023-02-01T18:08:27;22.10;40.40
21801;DHT22;11062;51.164;16.924;2023-02-01T18:14:02;19.50;41.30
21801;DHT22;11062;51.164;16.924;2023-02-01T18:16:37;21.00;44.20
21801;DHT22;11062;51.164;16.924;2023-02-01T18:19:03;21.40;41.40
21801;DHT22;11062;51.164;16.924;2023-02-01T18:21:36;21.40;42.20
21801;DHT22;11062;51.164;16.924;2023-02-01T18:24:06;21.60;42.00
21801;DHT22;11062;51.164;16.924;2023-02-01T18:26:32;22.10;41.40
21801;DHT22;11062;51.164;16.924;2023-02-01T18:29:07;22.20;41.20
21801;DHT22;11062;51.164;16.924;2023-02-01T18:31:34;22.20;41.30
21801;DHT22;11062;51.164;16.924;2023-02-01T18:34:01;21.70;41.60
21801;DHT22;11062;51.164;16.924;2023-02-01T18:36:27;20.90;42.50